Terminal Aerodrome Forecast
Issued by NWS Wakefield, VA

Home | Current Version | Previous Version | Text Only | Print | Product List | Glossary On
Versions: 1 2 3 4 5 6 7 8 9 10 11 12 13 14
000
FTUS41 KAKQ 120541
TAFSBY
TAF
KSBY 120541Z 1206/1306 16005KT P6SM SKC
     FM121300 22010KT P6SM BKN200
     FM121800 26012G20KT P6SM BKN100
     FM122300 30016G24KT P6SM BKN050
     FM130200 30015G23KT P6SM SCT150=

USA.gov is the U.S. government's official web portal to all federal, state and local government web resources and services.